Time;durP1;ratioP1;P1;durP2;ratioP2;P2;SDS_P1;SDS_P2;PMS_P1;PMS_P2;Temp;Humidity;BMP_temperature;BMP_pressure;BME280_temperature;BME280_humidity;BME280_pressure;Samples;Min_cycle;Max_cycle;Signal;HPM_P1;HPM_P2
2023/01/13 00:01:07;;;;;;;;;9.25;2.00;;;;;9.07;75.55;100163.03;5017843;28;10032;-65
2023/01/13 00:03:34;;;;;;;;;4.25;3.75;;;;;9.13;75.95;100164.91;5016637;28;10174;-65
2023/01/13 00:06:01;;;;;;;;;5.00;3.50;;;;;9.14;75.20;100174.63;5018826;28;10146;-66
2023/01/13 00:08:27;;;;;;;;;10.50;4.00;;;;;9.13;74.40;100175.66;5020007;28;10074;-66
2023/01/13 00:10:54;;;;;;;;;5.00;1.25;;;;;8.99;74.67;100164.03;5017338;28;10169;-65
2023/01/13 00:13:25;;;;;;;;;9.00;4.00;;;;;8.89;73.91;100169.78;5016025;28;10891;-66
2023/01/13 00:15:56;;;;;;;;;3.25;3.25;;;;;8.98;73.88;100167.75;5018739;28;10309;-66
2023/01/13 00:18:24;;;;;;;;;5.75;3.50;;;;;9.02;73.90;100173.53;5018859;28;10241;-66
2023/01/13 00:20:58;;;;;;;;;3.25;1.00;;;;;9.08;73.52;100160.16;5017926;28;10239;-67
2023/01/13 00:23:27;;;;;;;;;1.50;1.50;;;;;9.02;72.90;100152.06;5018043;28;10073;-66
2023/01/13 00:25:59;;;;;;;;;5.75;5.00;;;;;8.99;73.55;100158.66;5018743;28;10199;-65
2023/01/13 00:28:25;;;;;;;;;2.25;2.25;;;;;9.01;72.34;100150.41;5016155;28;9981;-66
2023/01/13 00:30:52;;;;;;;;;2.25;2.25;;;;;9.04;72.55;100152.72;5025666;28;10187;-66
2023/01/13 00:33:19;;;;;;;;;10.00;7.75;;;;;9.01;72.77;100148.56;5017956;28;10839;-65
2023/01/13 00:35:54;;;;;;;;;3.00;2.00;;;;;8.97;72.63;100151.84;5015823;28;10249;-67
2023/01/13 00:38:20;;;;;;;;;5.50;5.00;;;;;8.96;72.49;100144.84;5020141;28;11302;-65
2023/01/13 00:40:58;;;;;;;;;3.50;2.25;;;;;8.91;72.69;100142.72;5017261;28;10333;-67
2023/01/13 00:43:25;;;;;;;;;6.50;5.25;;;;;8.89;72.65;100142.94;5019093;28;10397;-66
2023/01/13 00:45:53;;;;;;;;;6.25;5.50;;;;;8.97;72.06;100135.75;5016516;28;10182;-66
2023/01/13 00:48:21;;;;;;;;;7.75;6.00;;;;;8.90;71.92;100131.16;5018733;28;10190;-67
2023/01/13 00:50:55;;;;;;;;;3.00;1.50;;;;;8.90;72.32;100136.53;5019335;28;10322;-68
2023/01/13 00:53:21;;;;;;;;;8.75;4.75;;;;;8.96;71.61;100129.56;5014293;28;10782;-66
2023/01/13 00:55:47;;;;;;;;;5.50;4.50;;;;;8.91;71.74;100129.31;5019378;28;10154;-66
2023/01/13 00:58:14;;;;;;;;;2.00;1.50;;;;;8.99;72.12;100126.44;5018021;28;10168;-66
2023/01/13 01:00:41;;;;;;;;;8.00;3.00;;;;;8.95;72.14;100125.19;5017243;28;10011;-68
2023/01/13 01:03:11;;;;;;;;;5.75;3.00;;;;;8.93;72.34;100121.91;5017889;28;10164;-65
2023/01/13 01:05:38;;;;;;;;;7.00;3.50;;;;;8.91;72.07;100115.88;5017345;28;10101;-66
2023/01/13 01:08:04;;;;;;;;;5.50;4.50;;;;;8.87;72.48;100115.50;5021353;28;10184;-67
2023/01/13 01:10:31;;;;;;;;;7.00;4.00;;;;;8.93;72.02;100121.91;5019818;28;10206;-68
2023/01/13 01:12:57;;;;;;;;;5.75;4.50;;;;;8.89;72.88;100124.16;5018186;28;10098;-69
2023/01/13 01:15:24;;;;;;;;;3.50;2.25;;;;;8.91;73.57;100129.31;5017466;28;10543;-68
2023/01/13 01:17:50;;;;;;;;;8.25;4.75;;;;;8.91;73.40;100132.84;5017627;28;10094;-68
2023/01/13 01:20:16;;;;;;;;;5.00;3.00;;;;;8.91;74.06;100138.22;5021334;28;10251;-68
2023/01/13 01:22:43;;;;;;;;;5.00;2.00;;;;;8.93;73.87;100145.22;5020733;28;10086;-68
2023/01/13 01:25:09;;;;;;;;;5.00;2.50;;;;;8.96;74.30;100142.16;5021823;28;10203;-68
2023/01/13 01:27:36;;;;;;;;;3.00;2.00;;;;;8.98;74.66;100142.75;5020429;28;10227;-68
2023/01/13 01:30:02;;;;;;;;;8.25;5.25;;;;;8.92;74.59;100139.03;5020282;28;10202;-69
2023/01/13 01:32:29;;;;;;;;;3.50;2.00;;;;;8.96;74.57;100142.97;5022437;28;10210;-69
2023/01/13 01:34:55;;;;;;;;;7.00;2.00;;;;;8.93;75.09;100151.41;5018921;28;10084;-69
2023/01/13 01:37:22;;;;;;;;;3.00;3.00;;;;;8.86;74.93;100140.66;5021142;28;10126;-67
2023/01/13 01:39:48;;;;;;;;;11.50;5.25;;;;;8.89;74.51;100137.56;5020132;28;10115;-67
2023/01/13 01:45:02;;;;;;;;;4.25;3.00;;;;;8.85;74.98;100133.63;5022084;28;10255;-67
2023/01/13 01:47:30;;;;;;;;;8.75;4.00;;;;;8.85;75.50;100135.50;5019851;28;10252;-68
2023/01/13 01:49:57;;;;;;;;;5.75;4.50;;;;;8.84;75.47;100131.97;5020025;28;10170;-66
2023/01/13 01:52:30;;;;;;;;;4.00;3.50;;;;;8.84;75.01;100121.25;5020442;28;10292;-65
2023/01/13 01:55:01;;;;;;;;;5.50;1.75;;;;;8.82;75.88;100107.19;5020694;28;10179;-66
2023/01/13 01:57:38;;;;;;;;;2.00;2.00;;;;;8.83;75.22;100108.00;5020314;28;10175;-69
2023/01/13 02:00:05;;;;;;;;;7.25;4.50;;;;;8.80;75.40;100117.31;5020998;28;10243;-68
2023/01/13 02:02:38;;;;;;;;;7.25;5.75;;;;;8.82;75.66;100134.03;5020813;28;10275;-69
2023/01/13 02:05:05;;;;;;;;;5.25;3.00;;;;;8.83;75.85;100126.78;5018834;28;10415;-69
2023/01/13 02:07:34;;;;;;;;;5.75;3.00;;;;;8.89;75.96;100126.84;5022150;28;10253;-66
2023/01/13 02:10:06;;;;;;;;;8.00;5.00;;;;;8.82;75.63;100114.41;5018040;28;10242;-68
2023/01/13 02:12:33;;;;;;;;;8.25;6.50;;;;;8.73;75.23;100113.75;5020826;28;10310;-66
2023/01/13 02:15:11;;;;;;;;;3.00;3.00;;;;;8.70;75.73;100113.34;5019828;28;10382;-65
2023/01/13 02:18:00;;;;;;;;;5.50;3.00;;;;;8.62;75.90;100101.75;5022823;28;10216;-67
2023/01/13 02:20:46;;;;;;;;;8.75;5.50;;;;;8.67;75.85;100109.22;5019453;28;11001;-67
2023/01/13 02:27:04;;;;;;;;;8.25;5.00;;;;;8.71;75.41;100093.50;5019658;28;10311;-67
2023/01/13 02:33:25;;;;;;;;;6.75;4.75;;;;;8.74;74.95;100093.94;5019185;28;10242;-67
2023/01/13 02:36:11;;;;;;;;;4.00;4.00;;;;;8.77;75.32;100092.72;5020088;28;10405;-67
2023/01/13 02:38:53;;;;;;;;;10.75;7.75;;;;;8.62;74.54;100084.81;5018153;28;10284;-66
2023/01/13 02:44:34;;;;;;;;;6.25;4.00;;;;;8.73;74.39;100073.53;5018763;28;10489;-68
2023/01/13 02:47:25;;;;;;;;;5.50;5.00;;;;;8.75;74.30;100068.78;5021138;28;10402;-67
2023/01/13 02:50:00;;;;;;;;;8.50;4.00;;;;;8.73;73.88;100078.88;5017072;28;10242;-67
2023/01/13 02:52:44;;;;;;;;;4.00;4.00;;;;;8.72;73.94;100071.88;5019566;28;10450;-67
2023/01/13 02:55:25;;;;;;;;;5.75;3.00;;;;;8.72;74.36;100076.41;5019844;28;10327;-65
2023/01/13 02:57:54;;;;;;;;;8.00;6.25;;;;;8.75;74.18;100073.31;5020097;28;10228;-65
2023/01/13 03:00:22;;;;;;;;;4.00;3.50;;;;;8.77;73.93;100080.13;5019736;28;11273;-65
2023/01/13 03:02:48;;;;;;;;;5.25;5.25;;;;;8.74;74.13;100083.22;5018092;28;10324;-67
2023/01/13 03:05:16;;;;;;;;;5.00;4.00;;;;;8.76;74.53;100091.91;5020014;28;10144;-65
2023/01/13 03:07:55;;;;;;;;;7.50;3.75;;;;;8.84;74.47;100091.72;5019760;28;10116;-67
2023/01/13 03:10:30;;;;;;;;;4.25;2.50;;;;;8.85;74.30;100087.19;5019228;28;10240;-66
2023/01/13 03:13:06;;;;;;;;;5.75;4.75;;;;;8.84;74.55;100091.72;5020030;28;10176;-67
2023/01/13 03:15:53;;;;;;;;;11.00;6.00;;;;;8.72;74.71;100089.84;5018585;28;10330;-67
2023/01/13 03:18:30;;;;;;;;;4.00;3.50;;;;;8.82;74.71;100082.22;5020820;28;10576;-66
2023/01/13 03:21:10;;;;;;;;;6.75;5.50;;;;;8.87;74.79;100082.44;5018390;28;10075;-70
2023/01/13 03:23:50;;;;;;;;;6.25;3.50;;;;;8.76;74.76;100083.03;5019476;28;10235;-65
2023/01/13 03:26:28;;;;;;;;;6.50;4.75;;;;;8.76;74.79;100075.81;5023597;28;10153;-68
2023/01/13 03:29:25;;;;;;;;;8.00;3.50;;;;;8.73;74.10;100076.19;5017616;28;10225;-66
2023/01/13 03:32:00;;;;;;;;;5.75;2.00;;;;;8.77;74.19;100057.84;5016471;28;10389;-67
2023/01/13 03:34:33;;;;;;;;;5.75;2.00;;;;;8.74;74.08;100056.38;5017518;28;10434;-65
2023/01/13 03:37:04;;;;;;;;;5.50;5.00;;;;;8.80;73.83;100060.13;5017568;28;10163;-66
2023/01/13 03:39:35;;;;;;;;;9.75;5.00;;;;;8.81;74.10;100062.59;5017710;28;10417;-68
2023/01/13 03:42:10;;;;;;;;;6.00;4.75;;;;;8.85;74.71;100065.72;5019359;28;10355;-66
2023/01/13 03:44:49;;;;;;;;;8.00;2.00;;;;;8.77;74.76;100065.91;5019989;28;10294;-68
2023/01/13 03:47:25;;;;;;;;;13.25;6.50;;;;;8.76;75.24;100074.97;5019140;28;10270;-68
2023/01/13 03:50:14;;;;;;;;;5.00;2.00;;;;;8.75;75.33;100062.56;5017729;28;10320;-68
2023/01/13 03:52:47;;;;;;;;;7.50;4.75;;;;;8.65;75.33;100060.28;5019011;28;10315;-68
2023/01/13 03:55:19;;;;;;;;;8.00;5.50;;;;;8.63;76.00;100070.41;5018368;28;10251;-68
2023/01/13 03:57:49;;;;;;;;;7.25;7.00;;;;;8.58;75.63;100076.34;5015448;28;10254;-68
2023/01/13 04:00:18;;;;;;;;;5.00;5.00;;;;;8.59;75.55;100063.78;5019450;28;10311;-68
2023/01/13 04:02:53;;;;;;;;;6.00;2.00;;;;;8.60;75.79;100073.47;5018256;28;10118;-66
2023/01/13 04:05:20;;;;;;;;;3.50;2.50;;;;;8.61;75.34;100073.25;5017539;28;10183;-66
2023/01/13 04:08:17;;;;;;;;;4.50;3.00;;;;;8.57;75.11;100060.44;5018247;28;10230;-67
2023/01/13 04:10:51;;;;;;;;;4.00;0.50;;;;;8.56;74.84;100073.03;5018733;28;10158;-68
2023/01/13 04:13:22;;;;;;;;;5.25;1.25;;;;;8.57;75.38;100082.75;5015442;28;10326;-67
2023/01/13 04:15:49;;;;;;;;;4.00;2.50;;;;;8.61;74.97;100069.75;5019220;28;10282;-67
2023/01/13 04:18:29;;;;;;;;;3.00;2.75;;;;;8.62;75.04;100071.41;5017225;28;10339;-66
2023/01/13 04:20:59;;;;;;;;;4.00;4.00;;;;;8.50;74.95;100071.16;5019077;28;10373;-66
2023/01/13 04:23:27;;;;;;;;;2.75;1.00;;;;;8.54;74.59;100063.53;5016709;28;10499;-67
2023/01/13 04:25:54;;;;;;;;;6.00;3.25;;;;;8.45;75.16;100060.19;5015238;28;10335;-67
2023/01/13 04:28:21;;;;;;;;;2.50;2.50;;;;;8.44;74.99;100063.09;5017845;28;10336;-66
2023/01/13 04:30:48;;;;;;;;;9.00;4.25;;;;;8.42;75.47;100065.94;5018576;28;10398;-66
2023/01/13 04:33:17;;;;;;;;;0.75;0.75;;;;;8.37;75.60;100066.56;5018757;28;10337;-66
2023/01/13 04:35:45;;;;;;;;;1.00;1.00;;;;;8.29;75.62;100082.78;5016952;28;10234;-65
2023/01/13 04:38:17;;;;;;;;;4.75;1.75;;;;;8.36;75.55;100074.78;5016895;28;10272;-66
2023/01/13 04:40:43;;;;;;;;;2.50;2.00;;;;;8.30;75.81;100070.19;5018308;28;10241;-66
2023/01/13 04:43:10;;;;;;;;;1.50;1.50;;;;;8.34;75.57;100066.09;5019691;28;10286;-67
2023/01/13 04:45:37;;;;;;;;;6.25;2.50;;;;;8.34;76.18;100066.91;5016753;28;10221;-68
2023/01/13 04:48:03;;;;;;;;;1.00;1.00;;;;;8.32;75.94;100063.63;5015676;28;10299;-66
2023/01/13 04:50:31;;;;;;;;;4.00;0.25;;;;;8.29;75.53;100052.44;5018855;28;10210;-69
2023/01/13 04:52:59;;;;;;;;;3.25;1.75;;;;;8.30;75.43;100057.59;5017163;28;10267;-66
2023/01/13 04:55:26;;;;;;;;;5.25;3.25;;;;;8.31;75.73;100051.25;5023647;28;10490;-68
2023/01/13 04:57:52;;;;;;;;;2.00;2.00;;;;;8.31;75.31;100070.00;5021779;28;10297;-67
2023/01/13 05:00:21;;;;;;;;;2.00;1.75;;;;;8.35;74.83;100057.84;5020188;28;10266;-67
2023/01/13 05:02:49;;;;;;;;;1.00;0.75;;;;;8.39;75.49;100069.88;5021879;28;10420;-68
2023/01/13 05:05:16;;;;;;;;;0.25;0.00;;;;;8.39;75.05;100075.25;5021044;28;10448;-68
2023/01/13 05:07:43;;;;;;;;;3.00;2.00;;;;;8.40;75.16;100071.53;5020784;28;10213;-68
2023/01/13 05:10:10;;;;;;;;;3.50;3.50;;;;;8.37;74.79;100061.19;5022139;28;10284;-66
2023/01/13 05:18:07;;;;;;;;;1.50;1.50;;;;;8.42;74.77;100060.59;5021731;28;10303;-67
2023/01/13 05:20:34;;;;;;;;;1.00;1.00;;;;;8.41;74.46;100066.97;5020858;28;10341;-68
2023/01/13 05:25:47;;;;;;;;;2.00;2.00;;;;;8.40;74.72;100062.66;5018696;28;11141;-68
2023/01/13 05:28:14;;;;;;;;;2.00;1.25;;;;;8.40;74.26;100060.78;5024255;28;10279;-66
2023/01/13 05:30:42;;;;;;;;;1.00;0.00;;;;;8.21;73.59;100058.81;5021565;28;10303;-66
2023/01/13 05:33:10;;;;;;;;;3.00;1.00;;;;;8.18;72.75;100051.16;5022734;28;10219;-65
2023/01/13 05:35:38;;;;;;;;;4.00;1.25;;;;;8.14;71.75;100066.84;5019535;28;12078;-69
2023/01/13 05:38:05;;;;;;;;;7.00;2.50;;;;;8.14;70.93;100066.84;5021155;28;10156;-69
2023/01/13 05:43:19;;;;;;;;;3.25;2.75;;;;;8.14;70.87;100058.78;5023153;28;10214;-69
2023/01/13 05:45:47;;;;;;;;;1.00;1.00;;;;;8.25;70.86;100072.66;5021469;28;10326;-69
2023/01/13 05:48:15;;;;;;;;;3.75;1.00;;;;;8.27;70.27;100070.59;5020950;28;10350;-67
2023/01/13 05:50:41;;;;;;;;;1.50;0.00;;;;;8.36;70.85;100067.56;5020085;28;10083;-66
2023/01/13 05:53:08;;;;;;;;;1.75;1.00;;;;;8.29;70.82;100068.53;5019735;28;10238;-68
2023/01/13 05:55:37;;;;;;;;;2.50;2.00;;;;;8.29;70.05;100069.38;5021348;28;10262;-68
2023/01/13 05:58:03;;;;;;;;;1.00;1.00;;;;;8.33;70.22;100067.94;5020391;28;10317;-69
2023/01/13 06:00:30;;;;;;;;;3.00;3.00;;;;;8.34;70.72;100061.53;5023277;28;10270;-67
2023/01/13 06:02:56;;;;;;;;;1.00;1.00;;;;;8.35;69.86;100060.53;5020869;28;10312;-66
2023/01/13 06:05:22;;;;;;;;;4.50;1.00;;;;;8.36;70.88;100074.78;5017981;28;10238;-68
2023/01/13 06:07:49;;;;;;;;;3.50;2.00;;;;;8.33;69.92;100067.94;5019282;28;10305;-67
2023/01/13 06:10:16;;;;;;;;;2.75;1.00;;;;;8.39;70.19;100069.06;5022290;28;10234;-66
2023/01/13 06:12:42;;;;;;;;;2.00;2.00;;;;;8.45;70.39;100056.69;5020551;28;10137;-67
2023/01/13 06:15:09;;;;;;;;;8.50;4.00;;;;;8.33;70.45;100070.63;5019713;28;10316;-68
2023/01/13 06:17:36;;;;;;;;;3.50;2.00;;;;;8.29;70.36;100077.41;5020479;28;10272;-67
2023/01/13 06:20:02;;;;;;;;;2.50;2.50;;;;;8.32;70.10;100086.91;5018972;28;10406;-69
2023/01/13 06:22:31;;;;;;;;;0.50;0.50;;;;;8.31;70.71;100079.91;5021253;28;10491;-67
2023/01/13 06:24:58;;;;;;;;;2.00;1.00;;;;;8.29;70.57;100084.63;5019306;28;10876;-66
2023/01/13 06:27:25;;;;;;;;;4.00;4.00;;;;;8.34;70.20;100098.25;5020051;28;11067;-66
2023/01/13 06:29:51;;;;;;;;;2.00;1.50;;;;;8.41;69.91;100091.94;5022434;28;11009;-67
2023/01/13 06:32:23;;;;;;;;;1.00;1.00;;;;;8.42;69.96;100090.09;5019636;28;10386;-66
2023/01/13 06:34:58;;;;;;;;;4.75;1.25;;;;;8.33;70.47;100085.88;5016371;28;10357;-69
2023/01/13 06:37:26;;;;;;;;;2.00;2.00;;;;;8.32;69.96;100085.06;5021624;28;10398;-69
2023/01/13 06:39:59;;;;;;;;;9.00;2.50;;;;;8.34;70.05;100082.19;5019943;28;10319;-68
2023/01/13 06:45:13;;;;;;;;;2.00;2.00;;;;;8.31;70.65;100080.72;5019865;28;10361;-69
2023/01/13 06:47:40;;;;;;;;;6.25;2.00;;;;;8.27;70.69;100084.00;5021400;28;10200;-66
2023/01/13 06:50:07;;;;;;;;;1.75;0.25;;;;;8.27;70.72;100097.41;5019119;28;10403;-69
2023/01/13 06:52:34;;;;;;;;;2.00;1.00;;;;;8.41;70.32;100093.81;5019897;28;10255;-68
2023/01/13 06:55:00;;;;;;;;;4.00;1.00;;;;;8.40;70.08;100092.97;5021174;28;10228;-69
2023/01/13 06:57:27;;;;;;;;;2.00;2.00;;;;;8.41;70.15;100089.25;5018733;28;10362;-68
2023/01/13 06:59:53;;;;;;;;;2.00;2.00;;;;;8.46;70.39;100091.34;5019198;28;10213;-69
2023/01/13 07:02:20;;;;;;;;;3.50;2.00;;;;;8.36;70.64;100086.31;5016887;28;10327;-68
2023/01/13 07:04:47;;;;;;;;;1.00;1.00;;;;;8.39;70.47;100095.88;5018513;28;10298;-69
2023/01/13 07:07:14;;;;;;;;;8.00;4.75;;;;;8.45;70.71;100091.56;5018974;28;11073;-68
2023/01/13 07:09:40;;;;;;;;;6.00;2.00;;;;;8.51;71.24;100106.88;5018631;28;10229;-69
2023/01/13 07:12:06;;;;;;;;;4.75;0.75;;;;;8.41;71.50;100096.47;5018530;28;10413;-69
2023/01/13 07:17:23;;;;;;;;;7.00;2.00;;;;;8.37;72.98;100106.78;5019736;28;10264;-66
2023/01/13 07:19:51;;;;;;;;;1.25;1.25;;;;;8.20;73.13;100113.47;5027279;28;10361;-67
2023/01/13 07:22:18;;;;;;;;;1.00;1.00;;;;;8.16;73.85;100113.00;5023137;28;10292;-66
2023/01/13 07:24:44;;;;;;;;;2.50;2.50;;;;;8.22;73.23;100121.28;5014615;28;10240;-65
2023/01/13 07:27:11;;;;;;;;;1.25;1.00;;;;;8.22;73.68;100114.06;5021509;28;10314;-66
2023/01/13 07:29:37;;;;;;;;;1.00;0.75;;;;;8.27;73.66;100122.38;5031920;28;10203;-68
2023/01/13 07:32:05;;;;;;;;;3.00;3.00;;;;;8.25;73.92;100127.09;5026297;28;10135;-68
2023/01/13 07:34:32;;;;;;;;;4.25;2.50;;;;;8.14;74.13;100120.44;5021636;28;10388;-66
2023/01/13 07:36:59;;;;;;;;;2.25;1.50;;;;;8.13;74.47;100132.16;5022179;28;11160;-68
2023/01/13 07:39:26;;;;;;;;;9.50;2.00;;;;;8.09;75.17;100135.44;5011144;28;10471;-69
2023/01/13 07:44:38;;;;;;;;;5.25;4.00;;;;;8.07;75.22;100148.22;5022799;28;10367;-69
2023/01/13 07:47:04;;;;;;;;;6.25;0.75;;;;;8.06;75.80;100136.69;5035689;28;10537;-68
2023/01/13 07:49:32;;;;;;;;;2.75;2.75;;;;;8.10;75.77;100145.13;5033652;28;10354;-68
2023/01/13 07:51:58;;;;;;;;;4.75;1.00;;;;;8.08;76.00;100150.69;5023456;28;10306;-65
2023/01/13 07:54:24;;;;;;;;;4.25;2.00;;;;;8.06;76.03;100143.88;5018578;28;10417;-66
2023/01/13 07:57:06;;;;;;;;;2.00;1.25;;;;;8.10;75.96;100137.94;5019153;28;10472;-68
2023/01/13 07:59:32;;;;;;;;;8.00;5.00;;;;;8.12;75.80;100145.78;5026415;28;10534;-68
2023/01/13 08:01:59;;;;;;;;;1.50;1.50;;;;;8.11;76.48;100144.94;5029251;28;10691;-68
2023/01/13 08:04:26;;;;;;;;;5.00;4.00;;;;;8.13;75.81;100153.63;5036913;28;10391;-68
2023/01/13 08:06:52;;;;;;;;;3.00;2.25;;;;;8.14;76.05;100147.25;5028232;28;10346;-68
2023/01/13 08:09:18;;;;;;;;;1.00;1.00;;;;;8.07;76.94;100158.94;5013690;28;10384;-69
2023/01/13 08:13:16;;;;;;;;;5.00;1.75;;;;;8.00;76.70;100161.56;5015804;28;10307;-67
2023/01/13 08:14:31;;;;;;;;;5.25;2.00;;;;;8.03;77.21;100165.72;5023442;28;10372;-66
2023/01/13 08:16:58;;;;;;;;;2.50;1.00;;;;;8.05;76.61;100164.47;5010404;28;10452;-66
2023/01/13 08:19:24;;;;;;;;;1.25;0.75;;;;;8.00;76.96;100174.13;5014213;28;10286;-67
2023/01/13 08:21:51;;;;;;;;;2.75;1.25;;;;;8.01;77.08;100178.47;5018913;28;10503;-67
2023/01/13 08:24:17;;;;;;;;;4.75;2.50;;;;;7.99;76.87;100175.16;5031208;28;11157;-68
2023/01/13 08:26:43;;;;;;;;;3.00;1.00;;;;;7.97;76.87;100175.34;5028951;28;10351;-68
2023/01/13 08:29:10;;;;;;;;;3.00;2.50;;;;;8.01;76.92;100184.66;5042125;28;10492;-68
2023/01/13 08:31:40;;;;;;;;;3.25;2.50;;;;;8.04;77.03;100175.41;5043445;28;10513;-65
2023/01/13 08:34:06;;;;;;;;;5.50;5.00;;;;;8.02;76.76;100177.44;5039760;28;10466;-65
2023/01/13 08:36:32;;;;;;;;;2.00;2.00;;;;;8.07;76.15;100186.56;5030251;28;10679;-66
2023/01/13 08:38:59;;;;;;;;;1.25;1.25;;;;;8.17;75.95;100172.81;5035493;28;10486;-65
2023/01/13 08:44:10;;;;;;;;;6.25;4.25;;;;;8.19;76.24;100168.09;5027463;28;10596;-67
2023/01/13 08:46:37;;;;;;;;;1.00;1.00;;;;;8.19;75.66;100170.78;5030898;28;10533;-66
2023/01/13 08:49:04;;;;;;;;;4.75;2.00;;;;;8.19;75.78;100178.84;5021764;28;10979;-66
2023/01/13 08:51:30;;;;;;;;;1.75;1.25;;;;;8.24;75.13;100175.56;5017168;28;10547;-67
2023/01/13 08:53:57;;;;;;;;;3.50;2.00;;;;;8.24;75.64;100179.06;5028546;28;10391;-69
2023/01/13 08:56:23;;;;;;;;;5.25;4.50;;;;;8.20;75.28;100185.03;5025574;28;11086;-66
2023/01/13 08:58:49;;;;;;;;;6.50;2.25;;;;;8.23;74.92;100209.59;5053577;28;10434;-66
2023/01/13 09:01:21;;;;;;;;;2.00;1.50;;;;;8.29;75.13;100206.13;5022603;28;10746;-66
2023/01/13 09:03:48;;;;;;;;;4.50;1.25;;;;;8.28;74.79;100225.91;5018327;28;10390;-68
2023/01/13 09:06:14;;;;;;;;;1.50;1.00;;;;;8.20;74.30;100199.25;5020835;28;12093;-68
2023/01/13 09:08:41;;;;;;;;;5.00;4.00;;;;;8.22;74.22;100210.59;5041382;28;10596;-68
2023/01/13 09:14:22;;;;;;;;;4.00;2.00;;;;;8.28;73.35;100215.19;5025464;28;10491;-68
2023/01/13 09:16:49;;;;;;;;;1.00;1.00;;;;;8.25;73.86;100222.78;5029419;28;10292;-68
2023/01/13 09:19:15;;;;;;;;;2.00;1.00;;;;;8.28;73.12;100223.22;5036198;28;10388;-68
2023/01/13 09:21:42;;;;;;;;;1.50;1.00;;;;;8.37;73.87;100230.13;5020178;28;10885;-66
2023/01/13 09:24:08;;;;;;;;;5.00;2.25;;;;;8.40;73.35;100219.03;5039321;28;10225;-66
2023/01/13 09:26:36;;;;;;;;;4.00;0.75;;;;;8.32;72.88;100221.00;5031424;28;10389;-66
2023/01/13 09:29:03;;;;;;;;;2.00;2.00;;;;;8.37;72.74;100224.78;5045750;28;11054;-67
2023/01/13 09:31:33;;;;;;;;;3.50;2.00;;;;;8.42;72.80;100225.00;5035308;28;10319;-66
2023/01/13 09:36:46;;;;;;;;;7.75;2.00;;;;;8.38;73.14;100239.00;5041311;28;11028;-67
2023/01/13 09:39:13;;;;;;;;;7.00;4.00;;;;;8.38;73.10;100234.47;5031473;28;10361;-66
2023/01/13 09:44:54;;;;;;;;;1.00;1.00;;;;;8.39;73.71;100252.25;5041322;28;11007;-66
2023/01/13 09:47:29;;;;;;;;;0.75;0.75;;;;;8.37;72.92;100251.59;5036357;28;10294;-66
2023/01/13 09:50:14;;;;;;;;;6.25;2.00;;;;;8.35;73.19;100250.13;5013279;28;10205;-66
2023/01/13 09:52:42;;;;;;;;;2.75;1.25;;;;;8.56;75.43;100265.38;5015753;28;10473;-67
2023/01/13 09:55:14;;;;;;;;;3.00;1.50;;;;;8.60;73.65;100270.13;5032027;28;10346;-68
2023/01/13 09:57:41;;;;;;;;;6.50;2.00;;;;;8.57;72.69;100258.97;5032162;28;10239;-68
2023/01/13 10:00:21;;;;;;;;;2.25;2.25;;;;;8.49;72.24;100276.03;5025327;28;10369;-67
2023/01/13 10:03:22;;;;;;;;;4.00;1.00;;;;;8.51;72.23;100273.16;5023211;28;11011;-67
2023/01/13 10:06:05;;;;;;;;;3.75;2.00;;;;;8.51;72.17;100290.09;5022582;28;10354;-66
2023/01/13 10:08:43;;;;;;;;;4.50;2.00;;;;;8.51;72.57;100286.59;5038725;28;10216;-66
2023/01/13 10:14:20;;;;;;;;;0.75;0.75;;;;;8.41;72.17;100293.09;5010319;28;10373;-70
2023/01/13 10:17:10;;;;;;;;;3.50;1.75;;;;;8.51;72.47;100281.22;5025247;28;10396;-69
2023/01/13 10:19:47;;;;;;;;;1.00;1.00;;;;;8.50;72.26;100323.28;5031910;28;10338;-65
2023/01/13 10:22:16;;;;;;;;;0.00;0.00;;;;;8.49;72.04;100300.16;5019722;28;10300;-68
2023/01/13 10:25:08;;;;;;;;;2.50;1.00;;;;;8.44;72.22;100299.94;5038743;28;10365;-67
2023/01/13 10:27:39;;;;;;;;;4.00;1.25;;;;;8.44;72.02;100302.63;5031612;28;10291;-67
2023/01/13 10:30:31;;;;;;;;;1.00;1.00;;;;;8.44;72.64;100307.16;5031790;28;10305;-68
2023/01/13 10:33:01;;;;;;;;;2.25;2.00;;;;;8.51;72.27;100308.03;5019631;28;10337;-69
2023/01/13 10:35:49;;;;;;;;;2.00;1.00;;;;;8.48;71.74;100305.75;5034102;28;10393;-68
2023/01/13 10:38:19;;;;;;;;;1.25;1.00;;;;;8.52;71.70;100313.19;5038511;28;10278;-67
2023/01/13 10:40:57;;;;;;;;;0.25;0.25;;;;;8.62;71.90;100308.31;5043004;28;10217;-70
2023/01/13 10:43:26;;;;;;;;;2.00;2.00;;;;;8.59;71.05;100308.72;5051125;28;10166;-67
2023/01/13 10:46:06;;;;;;;;;7.00;2.50;;;;;8.60;71.17;100322.97;5050729;28;10989;-68
2023/01/13 10:48:32;;;;;;;;;2.50;1.00;;;;;8.64;71.56;100322.38;5035290;28;10505;-67
2023/01/13 10:51:27;;;;;;;;;0.00;0.00;;;;;8.69;71.27;100329.03;5030785;28;10292;-67
2023/01/13 10:54:12;;;;;;;;;2.00;1.00;;;;;8.65;71.29;100320.53;5032544;28;10202;-65
2023/01/13 10:56:42;;;;;;;;;1.00;1.00;;;;;8.69;71.21;100337.91;5049971;28;10101;-66
2023/01/13 10:59:13;;;;;;;;;1.75;1.00;;;;;8.73;70.81;100341.84;5032078;28;10069;-66
2023/01/13 11:01:42;;;;;;;;;1.00;1.00;;;;;8.77;71.07;100363.75;5031627;28;10190;-65
2023/01/13 11:04:30;;;;;;;;;1.25;0.75;;;;;8.69;70.79;100337.91;5034626;28;10067;-67
2023/01/13 11:06:58;;;;;;;;;2.50;1.00;;;;;8.79;70.45;100350.97;5029266;28;10068;-67
2023/01/13 11:09:26;;;;;;;;;1.00;1.00;;;;;8.82;70.81;100343.34;5044744;28;10112;-65
2023/01/13 11:11:54;;;;;;;;;0.75;0.75;;;;;8.82;70.49;100346.03;5050763;28;10474;-65
2023/01/13 11:14:41;;;;;;;;;1.50;1.50;;;;;8.81;70.23;100359.66;5047959;28;10074;-66
2023/01/13 11:17:25;;;;;;;;;2.00;0.75;;;;;8.79;70.27;100364.38;5032898;28;10151;-70
2023/01/13 11:20:03;;;;;;;;;2.00;1.00;;;;;8.76;70.38;100360.25;5021180;28;10095;-69
2023/01/13 11:22:39;;;;;;;;;4.75;1.75;;;;;8.76;70.23;100368.31;5036573;28;10169;-68
2023/01/13 11:25:16;;;;;;;;;4.00;1.75;;;;;8.66;70.04;100375.84;5030236;28;10217;-68
2023/01/13 11:27:51;;;;;;;;;3.25;1.00;;;;;8.79;69.92;100385.84;5030424;28;10879;-68
2023/01/13 11:30:32;;;;;;;;;2.00;1.00;;;;;8.86;69.97;100384.06;5036796;28;10396;-68
2023/01/13 11:33:14;;;;;;;;;2.25;1.00;;;;;8.81;70.48;100367.72;5033973;28;10342;-69
2023/01/13 11:36:02;;;;;;;;;2.50;1.75;;;;;8.81;70.08;100381.13;5035942;28;10172;-66
2023/01/13 11:38:44;;;;;;;;;1.00;1.00;;;;;8.87;70.38;100381.19;5030502;28;10789;-65
2023/01/13 11:41:17;;;;;;;;;1.50;1.00;;;;;8.81;70.01;100392.69;5028006;28;10138;-65
2023/01/13 11:44:03;;;;;;;;;4.00;1.00;;;;;8.76;70.47;100392.44;5031176;28;10164;-67
2023/01/13 11:46:31;;;;;;;;;3.00;1.00;;;;;8.68;70.71;100381.03;5038211;28;10898;-66
2023/01/13 11:48:59;;;;;;;;;1.50;0.75;;;;;8.66;69.92;100397.31;5027448;28;10133;-67
2023/01/13 11:51:37;;;;;;;;;4.00;1.00;;;;;8.74;70.10;100417.81;5033342;28;10004;-66
2023/01/13 11:54:09;;;;;;;;;1.00;1.00;;;;;8.83;71.02;100404.09;5029993;28;10257;-68
2023/01/13 11:56:54;;;;;;;;;4.00;2.00;;;;;8.80;70.38;100401.78;5028526;28;10251;-69
2023/01/13 11:59:26;;;;;;;;;3.00;0.00;;;;;8.88;69.82;100412.38;5033969;28;10188;-67
2023/01/13 12:02:12;;;;;;;;;2.00;1.00;;;;;8.96;69.89;100414.09;5022598;28;10056;-66
2023/01/13 12:05:14;;;;;;;;;0.25;0.25;;;;;8.96;70.00;100414.09;5030270;28;10142;-69
2023/01/13 12:07:50;;;;;;;;;0.00;0.00;;;;;8.98;69.71;100432.69;5013476;28;10010;-68
2023/01/13 12:10:43;;;;;;;;;4.50;1.00;;;;;8.97;69.57;100437.22;5030396;28;9978;-67
2023/01/13 12:13:32;;;;;;;;;0.75;0.00;;;;;9.05;69.32;100441.63;5016085;28;10189;-69
2023/01/13 12:16:12;;;;;;;;;1.75;0.75;;;;;8.91;69.59;100438.84;5027428;28;10627;-67
2023/01/13 12:19:09;;;;;;;;;2.00;1.75;;;;;8.94;69.29;100444.81;5011026;28;9906;-67
2023/01/13 12:21:45;;;;;;;;;2.25;1.00;;;;;8.91;68.87;100441.53;5027503;28;10287;-69
2023/01/13 12:24:30;;;;;;;;;0.75;0.00;;;;;9.01;68.84;100435.81;5036171;28;10072;-64
2023/01/13 12:27:04;;;;;;;;;1.00;1.00;;;;;9.02;68.44;100444.69;5019030;28;10162;-67
2023/01/13 12:29:34;;;;;;;;;4.25;2.00;;;;;9.07;68.53;100442.25;5010783;28;10285;-67
2023/01/13 12:32:04;;;;;;;;;0.25;0.00;;;;;9.14;68.44;100456.56;5008578;28;10235;-68
2023/01/13 12:35:21;;;;;;;;;3.00;1.25;;;;;9.05;68.31;100463.09;5008289;28;10150;-66
2023/01/13 12:38:00;;;;;;;;;1.00;1.00;;;;;9.00;69.04;100452.94;5010089;28;10246;-66
2023/01/13 12:40:50;;;;;;;;;0.50;0.50;;;;;9.07;68.69;100458.34;5023562;28;10221;-66
2023/01/13 12:46:17;;;;;;;;;0.50;0.50;;;;;9.08;68.67;100487.72;5015825;28;10231;-66